Latest Weather Observations for Adelaide

IDS60901

Issued at 3:41 pm CST Thursday 28 May 2015 (issued every 10 minutes, with the page automatically refreshed every 10 minutes)

About weather observations | Map of Adelaide area stations | Latest observations for Adelaide area | Other Formats
Station Details ID: 023090 Name: KENT TOWN Lat: -34.92 Lon: 138.62 Height: 48.0 m
Data from the previous 72 hours. | See also: Recent months at Adelaide
Date/Time
CST
Tmp

°C
App
Tmp
°C
Dew
Point
°C
Rel
Hum
%
Delta-T

°C
Wind Press
QNH
hPa
Press
MSL
hPa
Rain
since
9 am
mm
Dir
 
Spd
km/h
Gust
km/h
Spd
kts
Gust
kts
28/03:30pm 17.6 14.9 10.5 63 3.8 W 15 28 8 15 1018.2 - 0.0
28/03:00pm 18.3 15.4 10.9 62 4.0 WNW 17 32 9 17 1018.2 1018.2 0.0
28/02:30pm 18.2 14.7 10.8 62 4.0 W 20 30 11 16 1017.9 - 0.0
28/02:00pm 18.7 16.2 11.0 61 4.2 W 15 32 8 17 1017.8 - 0.0
28/01:30pm 18.5 15.2 10.9 61 4.1 W 19 30 10 16 1018.2 - 0.0
28/01:00pm 18.7 16.2 11.2 61 4.1 WNW 15 24 8 13 1018.4 - 0.0
28/12:30pm 18.2 15.7 11.2 63 3.8 WNW 15 28 8 15 1018.6 - 0.0
28/12:00pm 17.7 15.6 11.2 65 3.5 NW 13 20 7 11 1019.0 1019.0 0.0
28/11:30am 15.8 14.3 11.9 77 2.1 N 11 20 6 11 1019.5 - 0.0
28/11:00am 13.9 12.8 11.8 87 1.1 N 9 15 5 8 1019.8 - 0.0
28/10:30am 12.9 11.4 11.8 93 0.6 NNE 11 19 6 10 1019.8 - 0.0
28/10:00am 12.8 12.1 11.9 94 0.5 NNE 7 11 4 6 1019.7 - 0.0
28/09:30am 12.7 11.4 11.4 92 0.7 NNE 9 15 5 8 1019.8 - 0.0
28/09:00am 13.2 11.7 10.7 85 1.3 N 9 17 5 9 1019.7 1019.7 0.0
28/08:30am 12.9 11.1 9.6 80 1.7 N 9 13 5 7 1019.6 - 0.0
28/08:00am 12.5 11.8 8.5 76 2.0 ENE 2 7 1 4 1019.4 - 0.0
28/07:30am 11.7 10.5 8.0 78 1.8 ENE 4 9 2 5 1019.1 - 0.0
28/07:00am 11.2 10.3 7.9 80 1.6 NE 2 7 1 4 1019.0 - 0.0
28/06:30am 10.4 9.9 7.7 83 1.3 CALM 0 0 0 0 1018.8 - 0.0
28/06:00am 10.7 10.2 8.0 83 1.3 CALM 0 0 0 0 1018.4 1018.4 0.0
28/05:30am 11.5 11.0 7.8 78 1.8 CALM 0 6 0 3 1018.1 - 0.0
28/05:00am 12.3 11.0 7.6 73 2.3 NE 4 9 2 5 1018.2 - 0.0
28/04:30am 11.7 11.3 8.2 79 1.7 CALM 0 2 0 1 1018.1 - 0.0
28/04:00am 11.2 10.9 8.8 85 1.2 CALM 0 0 0 0 1017.9 - 0.0
28/03:30am 11.1 10.1 8.7 85 1.2 NE 4 9 2 5 1018.0 - 0.0
28/03:00am 10.7 10.5 9.1 90 0.8 CALM 0 0 0 0 1017.9 1017.9 0.0
28/02:30am 10.6 10.4 9.0 90 0.8 CALM 0 6 0 3 1018.1 - 0.0
28/02:00am 10.6 10.5 9.4 92 0.6 CALM 0 0 0 0 1018.4 - 0.0
28/01:30am 10.6 10.5 9.4 92 0.6 CALM 0 0 0 0 1018.7 - 0.0
28/01:00am 10.4 10.2 9.2 92 0.6 CALM 0 0 0 0 1018.4 - 0.0
28/12:30am 10.6 10.5 9.4 92 0.6 CALM 0 0 0 0 1018.3 - 0.0
28/12:00am 10.9 10.9 9.7 92 0.6 CALM 0 0 0 0 1018.4 1018.4 0.0
 
Date/Time
CST
Tmp

°C
App
Tmp
°C
Dew
Point
°C
Rel
Hum
%
Delta-T

°C
Wind Press
QNH
hPa
Press
MSL
hPa
Rain
since
9 am
mm
Dir
 
Spd
km/h
Gust
km/h
Spd
kts
Gust
kts
27/11:30pm 11.2 11.2 9.8 91 0.7 CALM 0 0 0 0 1018.9 - 0.0
27/11:00pm 11.6 11.7 10.0 90 0.8 CALM 0 0 0 0 1018.8 - 0.0
27/10:30pm 12.1 12.2 10.1 87 1.0 CALM 0 0 0 0 1019.0 - 0.0
27/10:00pm 12.7 12.8 10.2 85 1.3 CALM 0 0 0 0 1019.1 - 0.0
27/09:30pm 12.8 12.9 10.3 85 1.3 CALM 0 0 0 0 1019.3 - 0.0
27/09:00pm 13.3 13.5 10.4 82 1.5 CALM 0 0 0 0 1019.4 1019.4 0.0
27/08:30pm 13.7 13.9 10.6 81 1.6 CALM 0 0 0 0 1019.3 - 0.0
27/08:00pm 13.6 13.8 10.7 82 1.5 CALM 0 0 0 0 1019.4 - 0.0
27/07:30pm 14.0 14.3 11.0 82 1.6 CALM 0 0 0 0 1019.3 - 0.0
27/07:00pm 14.6 15.0 11.2 80 1.8 CALM 0 0 0 0 1019.1 - 0.0
27/06:30pm 15.2 15.7 11.5 78 2.0 CALM 0 4 0 2 1019.0 - 0.0
27/06:00pm 15.6 16.0 11.1 74 2.4 CALM 0 0 0 0 1018.9 1018.9 0.0
27/05:30pm 16.4 16.5 11.6 73 2.6 N 2 7 1 4 1018.9 - 0.0
27/05:00pm 17.5 16.4 10.8 65 3.6 N 7 11 4 6 1018.8 - 0.0
27/04:30pm 18.1 16.9 10.4 60 4.1 NNW 7 13 4 7 1018.9 - 0.0
27/04:00pm 19.0 17.9 10.7 58 4.5 NNW 7 13 4 7 1018.9 - 0.0
27/03:30pm 19.3 18.3 11.0 58 4.5 WNW 7 11 4 6 1019.1 - 0.0
27/03:00pm 19.4 17.9 10.5 56 4.8 NW 9 19 5 10 1019.2 1019.2 0.0
27/02:30pm 19.4 17.6 10.7 57 4.7 NW 11 17 6 9 1019.2 - 0.0
27/02:00pm 19.2 17.9 11.1 59 4.4 NNW 9 15 5 8 1019.2 - 0.0
27/01:30pm 19.0 18.1 11.3 61 4.2 NW 7 15 4 8 1019.4 - 0.0
27/01:00pm 18.9 17.1 12.0 64 3.8 W 13 24 7 13 1019.7 - 0.0
27/12:30pm 18.8 16.9 10.4 58 4.5 NW 11 17 6 9 1020.2 - 0.0
27/12:00pm 18.7 16.5 10.7 59 4.3 NW 13 19 7 10 1020.6 1020.6 0.0
27/11:30am 18.8 16.9 10.4 58 4.5 NNW 11 19 6 10 1020.9 - 0.0
27/11:00am 18.6 16.6 10.2 58 4.5 NNW 11 17 6 9 1021.2 - 0.0
27/10:30am 17.9 16.2 10.0 60 4.2 N 9 15 5 8 1021.3 - 0.0
27/10:00am 16.8 15.1 9.7 63 3.7 NNE 9 15 5 8 1021.5 - 0.0
27/09:30am 15.9 14.5 9.5 66 3.3 NNE 7 11 4 6 1021.5 - 0.0
27/09:00am 15.3 14.5 9.7 69 2.9 NE 4 11 2 6 1021.5 1021.5 0.2
27/08:30am 14.7 14.3 9.9 73 2.5 NE 2 7 1 4 1021.4 - 0.2
27/08:00am 14.1 13.7 9.8 75 2.2 NE 2 9 1 5 1021.2 - 0.2
27/07:30am 13.8 13.1 9.9 77 2.0 NE 4 9 2 5 1021.0 - 0.2
27/07:00am 13.8 12.7 9.9 77 2.0 NE 6 9 3 5 1020.8 - 0.2
27/06:30am 13.4 13.1 10.1 80 1.7 NNE 2 7 1 4 1020.5 - 0.2
27/06:00am 13.1 13.3 10.4 84 1.4 CALM 0 4 0 2 1020.4 1020.4 0.2
27/05:30am 12.7 12.9 10.4 86 1.2 CALM 0 6 0 3 1020.4 - 0.2
27/05:00am 11.9 12.1 10.5 91 0.7 CALM 0 0 0 0 1020.5 - 0.2
27/04:30am 11.7 11.8 10.1 90 0.8 CALM 0 0 0 0 1020.2 - 0.2
27/04:00am 12.3 12.5 10.4 88 1.0 CALM 0 0 0 0 1020.0 - 0.2
27/03:30am 13.0 13.2 10.5 85 1.3 CALM 0 0 0 0 1020.1 - 0.2
27/03:00am 13.3 13.5 10.6 84 1.4 CALM 0 0 0 0 1020.4 1020.4 0.2
27/02:30am 13.9 13.6 10.2 78 1.9 NNE 2 7 1 4 1020.5 - 0.2
27/02:00am 14.6 13.5 10.0 74 2.4 NNE 6 11 3 6 1020.8 - 0.2
27/01:30am 14.5 13.9 10.3 76 2.2 NE 4 7 2 4 1020.7 - 0.2
27/01:00am 14.2 14.5 11.0 81 1.7 CALM 0 6 0 3 1020.7 - 0.2
27/12:30am 14.5 14.9 11.1 80 1.8 CALM 0 0 0 0 1020.9 - 0.2
27/12:00am 15.0 15.5 11.5 79 1.9 CALM 0 0 0 0 1021.1 1021.1 0.2
 
Date/Time
CST
Tmp

°C
App
Tmp
°C
Dew
Point
°C
Rel
Hum
%
Delta-T

°C
Wind Press
QNH
hPa
Press
MSL
hPa
Rain
since
9 am
mm
Dir
 
Spd
km/h
Gust
km/h
Spd
kts
Gust
kts
26/11:30pm 15.0 15.2 11.7 80 1.8 NE 2 9 1 5 1021.4 - 0.2
26/11:00pm 15.2 15.8 11.9 81 1.8 CALM 0 0 0 0 1021.6 - 0.0
26/10:30pm 15.6 15.0 11.7 77 2.1 NE 6 9 3 5 1021.9 - 0.0
26/10:00pm 15.4 16.1 12.1 81 1.8 CALM 0 0 0 0 1021.9 - 0.0
26/09:30pm 15.7 16.3 12.0 78 2.0 CALM 0 6 0 3 1021.9 - 0.0
26/09:00pm 15.9 15.7 11.8 76 2.2 NNE 4 7 2 4 1021.9 1021.9 0.0
26/08:30pm 15.7 16.5 12.4 81 1.8 CALM 0 0 0 0 1021.9 - 0.0
26/08:00pm 15.8 16.4 11.9 77 2.1 CALM 0 6 0 3 1021.8 - 0.0
26/07:30pm 16.6 16.7 10.1 65 3.4 CALM 0 0 0 0 1021.7 - 0.0
26/07:00pm 16.8 16.9 10.2 65 3.5 CALM 0 0 0 0 1021.5 - 0.0
26/06:30pm 17.0 17.1 10.0 63 3.7 CALM 0 0 0 0 1021.4 - 0.0
26/06:00pm 16.8 16.9 10.2 65 3.5 CALM 0 0 0 0 1021.2 1021.2 0.0
26/05:30pm 17.6 17.3 8.7 56 4.6 CALM 0 0 0 0 1021.1 - 0.0
26/05:00pm 18.9 18.8 9.4 54 5.0 CALM 0 6 0 3 1021.0 - 0.0
26/04:30pm 19.9 18.0 7.6 45 6.3 NNW 7 13 4 7 1021.0 - 0.0
26/04:00pm 20.4 18.2 7.8 44 6.5 WNW 9 15 5 8 1021.2 - 0.0
26/03:30pm 20.6 18.6 7.3 42 6.8 NNW 7 11 4 6 1021.2 - 0.0
26/03:00pm 20.7 18.8 7.4 42 6.8 NW 7 13 4 7 1021.1 1021.1 0.0
26/02:30pm 20.3 18.0 7.6 44 6.5 NNW 9 15 5 8 1021.5 - 0.0
26/02:00pm 20.3 18.5 7.9 44 6.4 N 7 11 4 6 1021.6 - 0.0
26/01:30pm 19.4 17.2 7.9 47 5.9 NNW 9 13 5 7 1022.4 - 0.0
26/01:00pm 19.4 17.2 7.9 47 5.9 N 9 17 5 9 1022.8 - 0.0
26/12:30pm 19.5 17.3 8.0 47 5.9 NNW 9 17 5 9 1023.4 - 0.0
26/12:00pm 20.0 17.3 7.2 43 6.5 N 11 19 6 10 1023.8 1023.8 0.0
26/11:30am 20.1 17.4 7.3 43 6.5 N 11 20 6 11 1024.3 - 0.0
26/11:00am 19.1 16.4 7.2 46 6.0 N 11 15 6 8 1024.8 - 0.0
26/10:30am 18.3 16.0 7.4 49 5.5 N 9 15 5 8 1025.1 - 0.0
26/10:00am 18.1 15.4 7.4 49 5.4 N 11 17 6 9 1025.3 - 0.0
26/09:30am 18.2 16.5 7.5 49 5.4 NNE 6 13 3 7 1025.4 - 0.0
26/09:00am 17.3 16.0 7.5 52 4.9 ENE 4 13 2 7 1025.6 1025.6 0.0
26/08:30am 15.1 14.3 8.1 63 3.5 NNE 2 9 1 5 1025.6 - 0.0
26/08:00am 13.3 13.0 8.7 73 2.3 CALM 0 0 0 0 1025.5 - 0.0
26/07:30am 13.0 12.7 8.6 74 2.2 CALM 0 0 0 0 1025.3 - 0.0
26/07:00am 12.9 12.6 8.5 74 2.2 CALM 0 0 0 0 1025.3 - 0.0
26/06:30am 13.2 12.8 8.1 71 2.5 CALM 0 0 0 0 1025.4 - 0.0
26/06:00am 12.5 12.2 8.5 76 2.0 CALM 0 0 0 0 1025.3 1025.3 0.0
26/05:30am 12.9 12.6 8.7 75 2.1 CALM 0 0 0 0 1025.3 - 0.0
26/05:00am 13.6 13.3 8.6 72 2.5 CALM 0 0 0 0 1025.4 - 0.0
26/04:30am 14.0 13.7 8.6 70 2.7 CALM 0 0 0 0 1025.4 - 0.0
26/04:00am 14.4 14.0 8.4 67 3.0 CALM 0 0 0 0 1025.3 - 0.0
26/03:30am 14.7 13.9 8.3 65 3.2 ENE 2 7 1 4 1025.2 - 0.0
26/03:00am 14.9 13.3 8.1 64 3.4 ENE 6 11 3 6 1025.4 1025.4 0.0
26/02:30am 14.9 13.1 8.1 64 3.4 NNE 7 9 4 5 1026.0 - 0.0
26/02:00am 14.9 14.5 8.3 64 3.3 CALM 0 6 0 3 1026.2 - 0.0
26/01:30am 15.2 13.6 8.2 63 3.5 N 6 9 3 5 1026.5 - 0.0
26/01:00am 15.7 13.5 7.7 59 4.0 N 9 15 5 8 1026.4 - 0.0
26/12:30am 16.1 13.8 7.4 56 4.3 E 9 17 5 9 1025.8 - 0.0
26/12:00am 16.1 14.2 7.4 56 4.3 ENE 7 13 4 7 1026.2 1026.2 0.0
 
Date/Time
CST
Tmp

°C
App
Tmp
°C
Dew
Point
°C
Rel
Hum
%
Delta-T

°C
Wind Press
QNH
hPa
Press
MSL
hPa
Rain
since
9 am
mm
Dir
 
Spd
km/h
Gust
km/h
Spd
kts
Gust
kts
25/11:30pm 14.9 13.8 8.3 64 3.3 ENE 4 9 2 5 1026.5 - 0.0
25/11:00pm 13.9 12.4 8.5 70 2.7 N 6 9 3 5 1027.2 - 0.0
25/10:30pm 13.2 13.0 9.2 77 2.0 CALM 0 0 0 0 1027.2 - 0.0
25/10:00pm 13.2 12.9 8.8 74 2.2 CALM 0 0 0 0 1027.1 - 0.0
25/09:30pm 13.0 12.8 9.2 78 1.9 CALM 0 0 0 0 1027.1 - 0.0
25/09:00pm 12.9 12.7 8.9 76 2.0 CALM 0 0 0 0 1027.3 1027.3 0.0
25/08:30pm 12.8 12.6 9.0 78 1.9 CALM 0 0 0 0 1027.5 - 0.0
25/08:00pm 13.0 12.8 9.2 78 1.9 CALM 0 0 0 0 1027.3 - 0.0
25/07:30pm 13.3 13.2 9.3 77 2.0 CALM 0 0 0 0 1027.2 - 0.0
25/07:00pm 13.9 13.7 9.2 73 2.4 CALM 0 0 0 0 1027.2 - 0.0
25/06:30pm 14.2 14.0 9.1 71 2.6 CALM 0 0 0 0 1026.9 - 0.0
25/06:00pm 15.1 14.5 8.8 66 3.2 SSE 2 6 1 3 1026.6 1026.6 0.0
25/05:30pm 15.7 15.4 8.8 63 3.5 CALM 0 0 0 0 1026.5 - 0.0
25/05:00pm 16.7 15.1 8.9 60 4.0 WSW 7 11 4 6 1026.4 - 0.0
25/04:30pm 17.8 15.6 7.9 52 5.0 SW 9 11 5 6 1025.9 - 0.0
25/04:00pm 18.5 16.6 7.6 49 5.5 SW 7 11 4 6 1025.8 - 0.0

Latest Capital City Observations: Canberra | Sydney | Melbourne | Brisbane | Adelaide | Perth | Hobart | Darwin

Other Formats:

Comma delimited format used in spreadsheet applications
http://www.bom.gov.au/fwo/IDS60901/IDS60901.94675.axf

JavaScript Object Notation format (JSON) in row-major order
http://www.bom.gov.au/fwo/IDS60901/IDS60901.94675.json